createdAt,value
2017-09-03T00:01:16.643Z,6.70
2017-09-03T00:03:44.310Z,6.33
2017-09-03T00:06:11.872Z,7.03
2017-09-03T00:08:39.502Z,6.60
2017-09-03T00:11:07.086Z,7.63
2017-09-03T00:13:34.713Z,8.40
2017-09-03T00:16:02.362Z,7.20
2017-09-03T00:18:29.986Z,8.07
2017-09-03T00:20:57.579Z,7.43
2017-09-03T00:23:25.214Z,7.80
2017-09-03T00:25:52.830Z,7.60
2017-09-03T00:28:20.490Z,7.37
2017-09-03T00:30:48.095Z,6.63
2017-09-03T00:33:15.742Z,8.20
2017-09-03T00:35:43.498Z,7.90
2017-09-03T00:38:11.121Z,8.43
2017-09-03T00:40:38.728Z,7.90
2017-09-03T00:43:06.355Z,7.40
2017-09-03T00:45:33.964Z,6.80
2017-09-03T00:48:01.612Z,6.97
2017-09-03T00:50:29.222Z,7.03
2017-09-03T00:52:56.832Z,7.50
2017-09-03T00:55:24.586Z,8.17
2017-09-03T00:57:52.186Z,8.00
2017-09-03T01:00:19.828Z,7.90
2017-09-03T01:02:47.719Z,8.20
2017-09-03T01:05:15.584Z,7.97
2017-09-03T01:07:43.760Z,7.40
2017-09-03T01:10:11.702Z,8.00
2017-09-03T01:12:39.489Z,5.93
2017-09-03T01:15:07.358Z,7.50
2017-09-03T01:17:35.128Z,6.33
2017-09-03T01:20:02.913Z,6.60
2017-09-03T01:22:30.854Z,5.70
2017-09-03T01:24:58.720Z,6.37
2017-09-03T01:27:26.298Z,7.30
2017-09-03T01:29:53.947Z,7.63
2017-09-03T01:32:21.753Z,7.83
2017-09-03T01:34:49.627Z,6.87
2017-09-03T01:37:17.544Z,7.50
2017-09-03T01:39:45.521Z,7.17
2017-09-03T01:42:13.383Z,6.70
2017-09-03T01:44:41.199Z,5.57
2017-09-03T01:47:09.062Z,5.60
2017-09-03T01:49:36.931Z,6.27
2017-09-03T01:52:04.586Z,6.63
2017-09-03T01:54:32.183Z,6.37
2017-09-03T01:56:59.819Z,6.60
2017-09-03T01:59:27.451Z,5.80
2017-09-03T02:01:55.090Z,5.97
2017-09-03T02:04:22.722Z,6.30
2017-09-03T02:06:50.361Z,6.10
2017-09-03T02:09:17.980Z,6.90
2017-09-03T02:11:45.606Z,6.10
2017-09-03T02:14:13.204Z,5.87
2017-09-03T02:16:40.820Z,5.57
2017-09-03T02:19:08.427Z,5.37
2017-09-03T02:21:36.074Z,5.67
2017-09-03T02:24:03.659Z,4.97
2017-09-03T02:26:31.456Z,3.97
2017-09-03T02:28:59.383Z,4.50
2017-09-03T02:31:27.282Z,4.57
2017-09-03T02:33:55.128Z,4.17
2017-09-03T02:36:22.868Z,4.80
2017-09-03T02:38:50.858Z,4.40
2017-09-03T02:41:21.117Z,5.20
2017-09-03T02:43:48.987Z,4.60
2017-09-03T02:46:16.953Z,3.63
2017-09-03T02:48:45.129Z,4.50
2017-09-03T02:51:12.997Z,4.10
2017-09-03T02:53:40.577Z,4.57
2017-09-03T02:56:08.220Z,4.73
2017-09-03T02:58:35.810Z,5.23
2017-09-03T03:01:03.466Z,5.50
2017-09-03T03:03:31.073Z,4.23
2017-09-03T03:05:58.703Z,4.00
2017-09-03T03:08:26.294Z,4.70
2017-09-03T03:10:53.909Z,4.93
2017-09-03T03:13:21.554Z,4.90
2017-09-03T03:15:49.186Z,4.90
2017-09-03T03:18:16.803Z,4.23
2017-09-03T03:20:44.446Z,5.47
2017-09-03T03:23:12.318Z,5.47
2017-09-03T03:25:40.361Z,4.90
2017-09-03T03:28:08.441Z,5.83
2017-09-03T03:30:36.514Z,5.23
2017-09-03T03:33:04.153Z,6.23
2017-09-03T03:35:31.809Z,5.93
2017-09-03T03:38:00.010Z,5.50
2017-09-03T03:40:27.864Z,6.03
2017-09-03T03:42:55.656Z,6.50
2017-09-03T03:45:26.961Z,4.93
2017-09-03T03:47:54.963Z,5.60
2017-09-03T03:50:23.138Z,6.33
2017-09-03T03:52:51.311Z,5.90
2017-09-03T03:55:19.490Z,5.10
2017-09-03T03:57:47.851Z,5.83
2017-09-03T04:00:15.932Z,5.10
2017-09-03T04:02:43.562Z,5.50
2017-09-03T04:05:11.291Z,6.30
2017-09-03T04:07:38.884Z,5.33
2017-09-03T04:10:06.675Z,5.70
2017-09-03T04:12:35.057Z,6.47
2017-09-03T04:15:03.344Z,6.20
2017-09-03T04:17:31.621Z,6.07
2017-09-03T04:19:59.887Z,5.67
2017-09-03T04:22:28.073Z,5.87
2017-09-03T04:24:56.334Z,5.53
2017-09-03T04:27:24.507Z,5.50
2017-09-03T04:29:52.784Z,6.03
2017-09-03T04:32:20.870Z,5.43
2017-09-03T04:34:48.840Z,6.17
2017-09-03T04:37:16.687Z,4.90
2017-09-03T04:39:44.755Z,5.80
2017-09-03T04:42:12.680Z,5.90
2017-09-03T04:44:40.572Z,6.10
2017-09-03T04:47:08.561Z,6.13
2017-09-03T04:49:36.543Z,5.57
2017-09-03T04:52:04.135Z,6.90
2017-09-03T04:54:31.759Z,7.13
2017-09-03T04:56:59.362Z,6.43
2017-09-03T04:59:27.003Z,5.67
2017-09-03T05:01:54.650Z,6.37
2017-09-03T05:04:22.274Z,5.90
2017-09-03T05:06:49.863Z,6.20
2017-09-03T05:09:17.484Z,6.37
2017-09-03T05:11:45.610Z,6.50
2017-09-03T05:14:13.783Z,6.40
2017-09-03T05:16:41.952Z,6.17
2017-09-03T05:19:09.966Z,5.93
2017-09-03T05:21:37.790Z,6.47
2017-09-03T05:24:05.548Z,6.50
2017-09-03T05:26:33.353Z,5.50
2017-09-03T05:29:00.983Z,6.40
2017-09-03T05:31:28.778Z,5.60
2017-09-03T05:33:56.594Z,5.27
2017-09-03T05:36:24.338Z,5.53
2017-09-03T05:38:52.122Z,6.43
2017-09-03T05:41:19.825Z,5.70
2017-09-03T05:43:47.656Z,6.23
2017-09-03T05:46:15.388Z,5.90
2017-09-03T05:48:43.053Z,6.37
2017-09-03T05:51:10.755Z,5.83
2017-09-03T05:53:38.364Z,6.70
2017-09-03T05:56:06.335Z,7.27
2017-09-03T05:58:34.148Z,6.70
2017-09-03T06:01:02.040Z,6.90
2017-09-03T06:03:29.916Z,7.10
2017-09-03T06:05:57.853Z,6.80
2017-09-03T06:08:26.639Z,8.00
2017-09-03T06:10:54.532Z,7.23
2017-09-03T06:13:22.131Z,6.77
2017-09-03T06:15:49.725Z,7.53
2017-09-03T06:18:17.372Z,7.70
2017-09-03T06:20:44.982Z,7.33
2017-09-03T06:23:12.603Z,7.77
2017-09-03T06:25:40.194Z,9.17
2017-09-03T06:28:07.828Z,9.40
2017-09-03T06:30:35.430Z,9.20
2017-09-03T06:33:03.058Z,9.00
2017-09-03T06:35:30.676Z,8.80
2017-09-03T06:37:58.302Z,12.27
2017-09-03T06:40:25.917Z,11.30
2017-09-03T06:42:53.538Z,12.27
2017-09-03T06:45:21.146Z,11.67
2017-09-03T06:47:48.818Z,12.80
2017-09-03T06:50:16.399Z,12.63
2017-09-03T06:52:44.043Z,13.53
2017-09-03T06:55:11.648Z,12.60
2017-09-03T06:57:39.326Z,12.97
2017-09-03T07:00:06.938Z,14.73
2017-09-03T07:02:34.598Z,13.67
2017-09-03T07:05:02.213Z,12.57
2017-09-03T07:07:29.902Z,13.47
2017-09-03T07:09:57.515Z,15.03
2017-09-03T07:12:25.136Z,15.27
2017-09-03T07:14:52.791Z,14.57
2017-09-03T07:17:20.402Z,13.20
2017-09-03T07:19:48.038Z,12.43
2017-09-03T07:22:15.674Z,11.93
2017-09-03T07:24:43.339Z,13.80
2017-09-03T07:27:10.974Z,13.83
2017-09-03T07:29:38.623Z,15.53
2017-09-03T07:32:06.253Z,16.17
2017-09-03T07:34:33.888Z,17.40
2017-09-03T07:37:01.498Z,15.97
2017-09-03T07:39:29.142Z,16.27
2017-09-03T07:41:56.762Z,16.00
2017-09-03T07:44:24.458Z,14.83
2017-09-03T07:46:52.090Z,15.13
2017-09-03T07:49:19.724Z,14.60
2017-09-03T07:51:47.357Z,13.97
2017-09-03T07:54:15.004Z,14.27
2017-09-03T07:56:42.612Z,17.40
2017-09-03T07:59:10.252Z,15.67
2017-09-03T08:01:37.855Z,17.80
2017-09-03T08:04:05.482Z,22.97
2017-09-03T08:06:33.107Z,18.67
2017-09-03T08:09:00.739Z,15.90
2017-09-03T08:11:28.426Z,17.30
2017-09-03T08:13:56.059Z,17.67
2017-09-03T08:16:23.826Z,16.47
2017-09-03T08:18:51.538Z,16.40
2017-09-03T08:21:19.390Z,15.97
2017-09-03T08:23:47.211Z,16.20
2017-09-03T08:26:14.983Z,17.23
2017-09-03T08:28:42.768Z,15.63
2017-09-03T08:31:10.538Z,18.33
2017-09-03T08:33:38.275Z,15.17
2017-09-03T08:36:06.097Z,14.97
2017-09-03T08:38:33.927Z,17.80
2017-09-03T08:41:01.629Z,17.70
2017-09-03T08:43:29.577Z,23.00
2017-09-03T08:45:57.451Z,23.70
2017-09-03T08:48:25.271Z,18.97
2017-09-03T08:50:53.124Z,16.60
2017-09-03T08:53:21.015Z,15.17
2017-09-03T08:55:48.857Z,16.80
2017-09-03T08:58:16.800Z,18.93
2017-09-03T09:00:44.654Z,17.53
2017-09-03T09:03:13.358Z,17.10
2017-09-03T09:05:41.245Z,17.37
2017-09-03T09:08:09.050Z,18.70
2017-09-03T09:10:37.116Z,19.13
2017-09-03T09:13:05.011Z,17.50
2017-09-03T09:15:32.814Z,16.53
2017-09-03T09:18:00.614Z,17.40
2017-09-03T09:20:28.470Z,18.57
2017-09-03T09:22:56.270Z,16.57
2017-09-03T09:25:23.903Z,19.07
2017-09-03T09:27:51.515Z,17.33
2017-09-03T09:30:19.219Z,18.13
2017-09-03T09:32:47.069Z,16.10
2017-09-03T09:35:14.781Z,16.57
2017-09-03T09:37:42.568Z,15.80
2017-09-03T09:40:10.466Z,16.07
2017-09-03T09:42:38.091Z,16.07
2017-09-03T09:45:05.796Z,17.57
2017-09-03T09:47:33.434Z,22.50
2017-09-03T09:50:01.065Z,15.90
2017-09-03T09:52:28.704Z,16.13
2017-09-03T09:54:56.423Z,16.07
2017-09-03T09:57:24.027Z,15.30
2017-09-03T09:59:51.675Z,13.57
2017-09-03T10:02:19.319Z,14.57
2017-09-03T10:04:47.015Z,15.10
2017-09-03T10:07:14.738Z,13.00
2017-09-03T10:09:42.354Z,11.90
2017-09-03T10:12:09.975Z,11.90
2017-09-03T10:14:37.618Z,10.60
2017-09-03T10:17:05.217Z,10.97
2017-09-03T10:19:32.874Z,10.30
2017-09-03T10:22:00.514Z,10.97
2017-09-03T10:24:28.196Z,10.43
2017-09-03T10:26:55.924Z,9.93
2017-09-03T10:29:23.555Z,11.13
2017-09-03T10:31:51.171Z,9.40
2017-09-03T10:34:18.864Z,10.30
2017-09-03T10:36:46.479Z,10.03
2017-09-03T10:39:14.195Z,10.88
2017-09-03T10:41:41.799Z,9.60
2017-09-03T10:44:09.435Z,9.30
2017-09-03T10:46:37.075Z,9.47
2017-09-03T10:49:04.707Z,9.00
2017-09-03T10:51:32.350Z,10.53
2017-09-03T10:54:00.059Z,20.80
2017-09-03T10:56:27.678Z,11.07
2017-09-03T10:58:55.291Z,10.70
2017-09-03T11:01:22.965Z,11.50
2017-09-03T11:03:50.559Z,10.63
2017-09-03T11:06:18.261Z,10.40
2017-09-03T11:08:45.890Z,10.60
2017-09-03T11:11:13.563Z,9.47
2017-09-03T11:13:41.208Z,10.43
2017-09-03T11:16:08.839Z,8.60
2017-09-03T11:18:36.440Z,9.50
2017-09-03T11:21:04.054Z,9.50
2017-09-03T11:23:31.662Z,7.80
2017-09-03T11:25:59.308Z,7.83
2017-09-03T11:28:26.917Z,9.37
2017-09-03T11:30:54.608Z,6.23
2017-09-03T11:33:22.190Z,6.23
2017-09-03T11:35:49.906Z,6.43
2017-09-03T11:38:17.579Z,4.70
2017-09-03T11:40:45.278Z,3.97
2017-09-03T11:43:12.891Z,5.53
2017-09-03T11:45:40.615Z,5.93
2017-09-03T11:48:08.211Z,5.63
2017-09-03T11:50:35.816Z,7.87
2017-09-03T11:53:03.482Z,7.50
2017-09-03T11:55:31.129Z,7.00
2017-09-03T11:57:58.740Z,6.33
2017-09-03T12:00:26.351Z,6.67
2017-09-03T12:02:53.964Z,6.60
2017-09-03T12:05:21.594Z,6.67
2017-09-03T12:07:49.189Z,6.17
2017-09-03T12:10:16.792Z,22.83
2017-09-03T12:12:44.410Z,7.70
2017-09-03T12:15:12.079Z,7.00
2017-09-03T12:17:39.723Z,5.87
2017-09-03T12:20:07.314Z,5.70
2017-09-03T12:22:34.947Z,7.27
2017-09-03T12:25:02.661Z,6.60
2017-09-03T12:27:30.275Z,6.83
2017-09-03T12:29:57.895Z,6.10
2017-09-03T12:32:26.190Z,6.53
2017-09-03T12:34:53.795Z,5.50
2017-09-03T12:37:21.442Z,5.40
2017-09-03T12:39:49.030Z,4.13
2017-09-03T12:42:16.672Z,5.20
2017-09-03T12:44:44.281Z,5.60
2017-09-03T12:47:11.899Z,4.90
2017-09-03T12:49:39.495Z,4.67
2017-09-03T12:52:08.774Z,4.00
2017-09-03T12:54:36.367Z,3.53
2017-09-03T12:57:04.012Z,3.70
2017-09-03T12:59:31.619Z,4.30
2017-09-03T13:01:59.287Z,4.10
2017-09-03T13:04:26.998Z,3.80
2017-09-03T13:06:54.598Z,3.63
2017-09-03T13:09:22.256Z,3.77
2017-09-03T13:11:49.843Z,5.07
2017-09-03T13:14:17.479Z,3.57
2017-09-03T13:16:45.274Z,4.83
2017-09-03T13:19:12.926Z,4.63
2017-09-03T13:21:40.523Z,4.10
2017-09-03T13:24:08.147Z,3.60
2017-09-03T13:26:35.858Z,5.65
2017-09-03T13:29:03.486Z,5.40
2017-09-03T13:31:31.197Z,12.60
2017-09-03T13:33:58.842Z,3.30
2017-09-03T13:36:26.434Z,3.40
2017-09-03T13:38:54.097Z,2.57
2017-09-03T13:41:21.723Z,3.10
2017-09-03T13:43:49.347Z,2.83
2017-09-03T13:46:16.974Z,4.50
2017-09-03T13:48:44.640Z,10.53
2017-09-03T13:51:12.258Z,16.57
2017-09-03T13:53:39.894Z,3.67
2017-09-03T13:56:07.590Z,25.90
2017-09-03T13:58:35.258Z,14.90
2017-09-03T14:01:02.862Z,9.50
2017-09-03T14:03:30.557Z,4.00
2017-09-03T14:05:58.159Z,3.20
2017-09-03T14:08:25.822Z,14.43
2017-09-03T14:10:53.423Z,3.43
2017-09-03T14:13:21.044Z,21.03
2017-09-03T14:15:48.657Z,4.20
2017-09-03T14:18:16.290Z,7.70
2017-09-03T14:20:43.887Z,6.93
2017-09-03T14:23:11.511Z,3.47
2017-09-03T14:25:39.122Z,2.70
2017-09-03T14:28:07.179Z,29.60
2017-09-03T14:30:34.771Z,3.97
2017-09-03T14:33:02.437Z,285.70
2017-09-03T14:35:30.038Z,6.27
2017-09-03T14:37:57.684Z,2.80
2017-09-03T14:40:25.282Z,3.27
2017-09-03T14:42:52.890Z,2.93
2017-09-03T14:45:20.531Z,3.57
2017-09-03T14:47:48.138Z,4.73
2017-09-03T14:50:15.797Z,4.10
2017-09-03T14:52:43.410Z,7.47
2017-09-03T14:55:11.089Z,6.50
2017-09-03T14:57:38.670Z,6.53
2017-09-03T15:00:06.310Z,7.63
2017-09-03T15:02:33.919Z,4.53
2017-09-03T15:05:01.561Z,4.37
2017-09-03T15:07:29.266Z,4.60
2017-09-03T15:09:56.899Z,7.10
2017-09-03T15:12:24.521Z,13.17
2017-09-03T15:14:52.159Z,10.53
2017-09-03T15:17:19.883Z,4.30
2017-09-03T15:19:47.523Z,10.03
2017-09-03T15:22:15.142Z,4.70
2017-09-03T15:24:42.970Z,4.53
2017-09-03T15:27:10.562Z,2.90
2017-09-03T15:29:38.345Z,6.87
2017-09-03T15:32:05.943Z,3.43
2017-09-03T15:34:33.607Z,3.80
2017-09-03T15:37:01.271Z,3.97
2017-09-03T15:39:28.924Z,5.80
2017-09-03T15:41:56.530Z,7.43
2017-09-03T15:44:24.283Z,6.30
2017-09-03T15:46:51.918Z,3.23
2017-09-03T15:49:19.513Z,3.10
2017-09-03T15:51:47.149Z,3.00
2017-09-03T15:54:14.769Z,3.27
2017-09-03T15:56:42.430Z,3.20
2017-09-03T15:59:10.026Z,3.10
2017-09-03T16:01:37.645Z,3.40
2017-09-03T16:04:05.247Z,3.90
2017-09-03T16:06:32.883Z,3.57
2017-09-03T16:09:00.524Z,4.30
2017-09-03T16:11:28.211Z,5.23
2017-09-03T16:13:55.823Z,3.63
2017-09-03T16:16:23.447Z,4.37
2017-09-03T16:18:51.056Z,8.37
2017-09-03T16:21:18.708Z,18.40
2017-09-03T16:23:46.347Z,13.00
2017-09-03T16:26:14.069Z,5.03
2017-09-03T16:28:41.667Z,7.50
2017-09-03T16:31:09.294Z,3.80
2017-09-03T16:33:36.903Z,10.10
2017-09-03T16:36:04.530Z,7.90
2017-09-03T16:38:32.123Z,4.40
2017-09-03T16:40:59.782Z,3.13
2017-09-03T16:43:27.440Z,24.53
2017-09-03T16:45:55.054Z,5.20
2017-09-03T16:48:22.695Z,3.30
2017-09-03T16:50:50.301Z,2.57
2017-09-03T16:53:17.939Z,2.97
2017-09-03T16:55:45.550Z,3.20
2017-09-03T16:58:13.191Z,2.63
2017-09-03T17:00:40.789Z,3.73
2017-09-03T17:03:08.408Z,2.93
2017-09-03T17:05:36.007Z,3.47
2017-09-03T17:08:03.670Z,4.60
2017-09-03T17:10:31.264Z,3.67
2017-09-03T17:12:58.890Z,3.50
2017-09-03T17:15:26.503Z,3.40
2017-09-03T17:17:54.131Z,3.67
2017-09-03T17:20:21.723Z,3.50
2017-09-03T17:22:49.558Z,3.63
2017-09-03T17:25:17.155Z,3.57
2017-09-03T17:27:44.820Z,3.33
2017-09-03T17:30:13.207Z,3.27
2017-09-03T17:32:40.868Z,3.40
2017-09-03T17:35:24.111Z,3.00
2017-09-03T17:37:52.243Z,3.80
2017-09-03T17:40:20.371Z,2.67
2017-09-03T17:42:58.610Z,2.93
2017-09-03T17:45:26.223Z,3.53
2017-09-03T17:47:54.065Z,2.70
2017-09-03T17:50:21.675Z,2.70
2017-09-03T17:52:49.308Z,3.20
2017-09-03T17:55:16.900Z,2.20
2017-09-03T17:57:44.548Z,2.67
2017-09-03T18:00:12.140Z,2.90
2017-09-03T18:02:39.805Z,2.33
2017-09-03T18:05:07.983Z,2.40
2017-09-03T18:07:35.631Z,2.63
2017-09-03T18:10:03.264Z,2.60
2017-09-03T18:12:30.899Z,3.50
2017-09-03T18:14:58.502Z,4.33
2017-09-03T18:17:26.115Z,7.00
2017-09-03T18:19:53.756Z,3.10
2017-09-03T18:22:21.391Z,2.40
2017-09-03T18:24:49.011Z,2.40
2017-09-03T18:27:16.628Z,3.20
2017-09-03T18:29:54.123Z,2.17
2017-09-03T18:32:21.759Z,3.27
2017-09-03T18:34:49.363Z,2.90
2017-09-03T18:37:32.786Z,3.10
2017-09-03T18:40:04.159Z,52.57
2017-09-03T18:42:35.315Z,780.77
2017-09-03T18:45:02.987Z,950.27
2017-09-03T18:47:30.631Z,999.90
2017-09-03T18:50:02.730Z,999.90
2017-09-03T18:55:39.703Z,999.90
2017-09-03T18:58:11.186Z,999.90
2017-09-03T19:00:38.813Z,999.90
2017-09-03T19:03:06.470Z,999.90
2017-09-03T19:05:34.471Z,322.80
2017-09-03T19:08:02.105Z,52.03
2017-09-03T19:10:29.738Z,39.30
2017-09-03T19:12:57.376Z,91.80
2017-09-03T19:15:24.983Z,22.10
2017-09-03T19:17:52.606Z,7.90
2017-09-03T19:20:20.236Z,8.63
2017-09-03T19:22:47.879Z,10.57
2017-09-03T19:25:15.485Z,9.70
2017-09-03T19:27:43.112Z,10.10
2017-09-03T19:30:10.780Z,44.37
2017-09-03T19:32:38.427Z,21.37
2017-09-03T19:35:06.058Z,10.20
2017-09-03T19:37:34.184Z,9.93
2017-09-03T19:40:01.787Z,4.80
2017-09-03T19:42:29.438Z,5.83
2017-09-03T19:44:57.038Z,6.40
2017-09-03T19:47:24.638Z,5.77
2017-09-03T19:49:52.280Z,7.30
2017-09-03T19:52:19.972Z,5.63
2017-09-03T19:54:47.610Z,3.87
2017-09-03T19:57:15.194Z,5.10
2017-09-03T19:59:42.820Z,5.70
2017-09-03T20:02:10.414Z,6.20
2017-09-03T20:04:38.031Z,4.47
2017-09-03T20:07:05.662Z,4.10
2017-09-03T20:09:33.302Z,4.60
2017-09-03T20:12:00.898Z,4.80
2017-09-03T20:14:28.534Z,5.13
2017-09-03T20:16:56.154Z,4.00
2017-09-03T20:19:23.780Z,4.50
2017-09-03T20:21:51.387Z,3.57
2017-09-03T20:24:19.011Z,3.30
2017-09-03T20:26:46.619Z,4.10
2017-09-03T20:29:14.257Z,4.10
2017-09-03T20:31:41.878Z,3.03
2017-09-03T20:34:09.506Z,3.60
2017-09-03T20:36:37.110Z,3.57
2017-09-03T20:39:04.747Z,4.17
2017-09-03T20:41:32.358Z,3.70
2017-09-03T20:43:59.997Z,4.37
2017-09-03T20:46:27.608Z,3.70
2017-09-03T20:48:55.290Z,3.70
2017-09-03T20:51:22.930Z,4.70
2017-09-03T20:53:50.533Z,4.97
2017-09-03T20:56:18.174Z,5.00
2017-09-03T20:58:45.782Z,4.73
2017-09-03T21:01:13.462Z,4.97
2017-09-03T21:03:41.062Z,4.37
2017-09-03T21:06:08.702Z,5.20
2017-09-03T21:08:36.298Z,4.03
2017-09-03T21:11:03.945Z,5.90
2017-09-03T21:13:31.547Z,5.40
2017-09-03T21:15:59.270Z,4.60
2017-09-03T21:18:26.894Z,4.67
2017-09-03T21:20:54.638Z,5.33
2017-09-03T21:23:22.254Z,4.23
2017-09-03T21:25:49.848Z,4.80
2017-09-03T21:28:17.488Z,4.30
2017-09-03T21:30:45.135Z,4.90
2017-09-03T21:33:12.741Z,4.50
2017-09-03T21:35:40.419Z,3.80
2017-09-03T21:38:08.014Z,4.40
2017-09-03T21:40:35.710Z,4.10
2017-09-03T21:43:03.303Z,4.20
2017-09-03T21:45:30.926Z,4.80
2017-09-03T21:47:58.519Z,4.50
2017-09-03T21:50:26.139Z,4.10
2017-09-03T21:52:53.742Z,4.90
2017-09-03T21:55:21.332Z,4.33
2017-09-03T21:57:48.993Z,4.47
2017-09-03T22:00:16.610Z,4.50
2017-09-03T22:02:44.262Z,4.43
2017-09-03T22:05:11.882Z,4.57
2017-09-03T22:07:39.573Z,5.40
2017-09-03T22:10:07.187Z,4.53
2017-09-03T22:12:34.849Z,4.17
2017-09-03T22:15:02.497Z,4.40
2017-09-03T22:17:30.445Z,4.13
2017-09-03T22:19:58.072Z,4.50
2017-09-03T22:22:26.442Z,4.40
2017-09-03T22:24:54.105Z,4.50
2017-09-03T22:27:21.720Z,4.13
2017-09-03T22:29:49.368Z,5.20
2017-09-03T22:32:16.973Z,4.00
2017-09-03T22:34:44.598Z,3.67
2017-09-03T22:37:12.207Z,3.20
2017-09-03T22:39:39.838Z,4.27
2017-09-03T22:42:07.429Z,4.53
2017-09-03T22:44:35.106Z,3.70
2017-09-03T22:47:02.769Z,4.00
2017-09-03T22:49:30.351Z,4.17
2017-09-03T22:51:57.986Z,4.90
2017-09-03T22:54:25.685Z,4.20
2017-09-03T22:56:53.317Z,3.30
2017-09-03T22:59:20.938Z,4.13
2017-09-03T23:01:48.639Z,4.03
2017-09-03T23:04:16.258Z,3.90
2017-09-03T23:06:43.931Z,4.57
2017-09-03T23:09:11.603Z,4.27
2017-09-03T23:11:39.195Z,3.87
2017-09-03T23:14:06.795Z,4.00
2017-09-03T23:16:34.420Z,3.90
2017-09-03T23:19:02.020Z,4.10
2017-09-03T23:21:29.698Z,4.23
2017-09-03T23:23:57.314Z,4.70
2017-09-03T23:26:25.085Z,4.50
2017-09-03T23:28:52.682Z,3.83
2017-09-03T23:31:20.367Z,4.07
2017-09-03T23:33:48.019Z,4.30
2017-09-03T23:36:15.643Z,4.20
2017-09-03T23:38:43.264Z,4.50
2017-09-03T23:41:10.914Z,3.97
2017-09-03T23:43:38.558Z,3.40
2017-09-03T23:46:06.264Z,4.83
2017-09-03T23:48:33.882Z,4.37
2017-09-03T23:51:01.536Z,4.50
2017-09-03T23:53:29.149Z,4.60
2017-09-03T23:55:56.809Z,4.77
2017-09-03T23:58:24.431Z,3.90
